sensor_id;sensor_type;location;lat;lon;timestamp;pressure;altitude;pressure_sealevel;temperature;humidity
43161;BME280;40968;52.342;5.528;2022-10-28T00:01:12;101802.50;;;16.18;75.19
43161;BME280;40968;52.342;5.528;2022-10-28T00:03:41;101768.13;;;15.98;75.21
43161;BME280;40968;52.342;5.528;2022-10-28T00:06:09;101817.00;;;16.29;75.09
43161;BME280;40968;52.342;5.528;2022-10-28T00:08:38;101810.13;;;16.24;75.10
43161;BME280;40968;52.342;5.528;2022-10-28T00:11:06;101816.63;;;16.22;75.22
43161;BME280;40968;52.342;5.528;2022-10-28T00:13:34;101689.81;;;15.52;75.48
43161;BME280;40968;52.342;5.528;2022-10-28T00:16:06;101759.81;;;15.89;75.48
43161;BME280;40968;52.342;5.528;2022-10-28T00:18:33;101723.22;;;15.63;75.36
43161;BME280;40968;52.342;5.528;2022-10-28T00:21:01;101772.22;;;15.92;75.50
43161;BME280;40968;52.342;5.528;2022-10-28T00:23:28;101798.63;;;16.00;75.69
43161;BME280;40968;52.342;5.528;2022-10-28T00:26:03;101745.56;;;15.76;75.89
43161;BME280;40968;52.342;5.528;2022-10-28T00:28:30;101762.16;;;15.83;76.16
43161;BME280;40968;52.342;5.528;2022-10-28T00:31:02;101794.81;;;16.02;76.01
43161;BME280;40968;52.342;5.528;2022-10-28T00:33:28;101669.16;;;15.30;76.00
43161;BME280;40968;52.342;5.528;2022-10-28T00:35:55;101802.19;;;16.00;76.32
43161;BME280;40968;52.342;5.528;2022-10-28T00:38:21;101730.84;;;15.57;76.38
43161;BME280;40968;52.342;5.528;2022-10-28T00:40:48;101786.09;;;15.99;76.06
43161;BME280;40968;52.342;5.528;2022-10-28T00:43:31;101692.78;;;15.49;76.08
43161;BME280;40968;52.342;5.528;2022-10-28T00:45:58;101769.25;;;15.95;76.05
43161;BME280;40968;52.342;5.528;2022-10-28T00:48:24;101775.53;;;15.96;76.11
43161;BME280;40968;52.342;5.528;2022-10-28T00:50:51;101739.41;;;15.74;76.20
43161;BME280;40968;52.342;5.528;2022-10-28T00:53:20;101684.34;;;15.42;76.26
43161;BME280;40968;52.342;5.528;2022-10-28T00:55:48;101691.47;;;15.44;75.88
43161;BME280;40968;52.342;5.528;2022-10-28T00:58:18;101724.22;;;15.62;76.13
43161;BME280;40968;52.342;5.528;2022-10-28T01:00:46;101776.66;;;15.93;76.43
43161;BME280;40968;52.342;5.528;2022-10-28T01:03:12;101776.75;;;15.91;76.15
43161;BME280;40968;52.342;5.528;2022-10-28T01:05:41;101681.41;;;15.34;76.10
43161;BME280;40968;52.342;5.528;2022-10-28T01:08:08;101583.28;;;14.79;76.09
43161;BME280;40968;52.342;5.528;2022-10-28T01:10:50;101699.16;;;15.48;76.13
43161;BME280;40968;52.342;5.528;2022-10-28T01:13:33;101681.28;;;15.36;76.28
43161;BME280;40968;52.342;5.528;2022-10-28T01:16:08;101753.66;;;15.87;76.24
43161;BME280;40968;52.342;5.528;2022-10-28T01:18:44;101727.16;;;15.70;76.25
43161;BME280;40968;52.342;5.528;2022-10-28T01:21:30;101673.66;;;15.30;76.27
43161;BME280;40968;52.342;5.528;2022-10-28T01:24:16;101712.66;;;15.59;76.29
43161;BME280;40968;52.342;5.528;2022-10-28T01:30:02;101750.25;;;15.85;76.28
43161;BME280;40968;52.342;5.528;2022-10-28T01:32:38;101627.31;;;15.13;76.24
43161;BME280;40968;52.342;5.528;2022-10-28T01:35:12;101752.19;;;15.83;75.95
43161;BME280;40968;52.342;5.528;2022-10-28T01:37:48;101549.78;;;14.58;76.22
43161;BME280;40968;52.342;5.528;2022-10-28T01:40:23;101762.31;;;15.81;76.22
43161;BME280;40968;52.342;5.528;2022-10-28T01:42:55;101663.97;;;15.27;76.00
43161;BME280;40968;52.342;5.528;2022-10-28T01:45:25;101740.41;;;15.73;76.15
43161;BME280;40968;52.342;5.528;2022-10-28T01:47:59;101745.56;;;15.76;76.29
43161;BME280;40968;52.342;5.528;2022-10-28T01:50:30;101755.50;;;15.75;76.06
43161;BME280;40968;52.342;5.528;2022-10-28T01:53:02;101494.50;;;14.19;75.95
43161;BME280;40968;52.342;5.528;2022-10-28T01:55:32;101741.50;;;15.70;76.06
43161;BME280;40968;52.342;5.528;2022-10-28T01:58:02;101737.06;;;15.69;76.36
43161;BME280;40968;52.342;5.528;2022-10-28T02:00:31;101624.63;;;15.02;76.02
43161;BME280;40968;52.342;5.528;2022-10-28T02:02:59;101532.72;;;14.35;76.43
43161;BME280;40968;52.342;5.528;2022-10-28T02:05:41;101735.75;;;15.64;76.49
43161;BME280;40968;52.342;5.528;2022-10-28T02:08:32;101702.75;;;15.49;76.51
43161;BME280;40968;52.342;5.528;2022-10-28T02:11:18;101674.78;;;15.27;76.51
43161;BME280;40968;52.342;5.528;2022-10-28T02:13:56;101721.13;;;15.55;76.70
43161;BME280;40968;52.342;5.528;2022-10-28T02:16:30;101719.44;;;15.54;76.62
43161;BME280;40968;52.342;5.528;2022-10-28T02:19:07;101669.50;;;15.25;76.72
43161;BME280;40968;52.342;5.528;2022-10-28T02:21:44;101697.22;;;15.39;76.84
43161;BME280;40968;52.342;5.528;2022-10-28T02:24:18;101705.31;;;15.50;76.60
43161;BME280;40968;52.342;5.528;2022-10-28T02:26:50;101703.72;;;15.48;76.72
43161;BME280;40968;52.342;5.528;2022-10-28T02:29:26;101635.16;;;15.05;76.42
43161;BME280;40968;52.342;5.528;2022-10-28T02:31:57;101648.41;;;15.08;76.70
43161;BME280;40968;52.342;5.528;2022-10-28T02:34:30;101668.75;;;15.23;76.75
43161;BME280;40968;52.342;5.528;2022-10-28T02:36:59;101662.41;;;15.13;76.85
43161;BME280;40968;52.342;5.528;2022-10-28T02:39:29;101627.78;;;14.96;76.86
43161;BME280;40968;52.342;5.528;2022-10-28T02:42:00;101651.47;;;15.03;77.04
43161;BME280;40968;52.342;5.528;2022-10-28T02:44:32;101643.75;;;14.99;77.01
43161;BME280;40968;52.342;5.528;2022-10-28T02:47:03;101625.50;;;14.91;77.09
43161;BME280;40968;52.342;5.528;2022-10-28T02:49:35;101522.44;;;14.29;77.03
43161;BME280;40968;52.342;5.528;2022-10-28T02:52:05;101662.16;;;15.16;77.24
43161;BME280;40968;52.342;5.528;2022-10-28T02:54:36;101418.13;;;13.62;77.08
43161;BME280;40968;52.342;5.528;2022-10-28T02:57:06;101625.59;;;14.89;77.15
43161;BME280;40968;52.342;5.528;2022-10-28T02:59:35;101636.88;;;15.06;77.19
43161;BME280;40968;52.342;5.528;2022-10-28T03:02:01;101689.88;;;15.30;77.24
43161;BME280;40968;52.342;5.528;2022-10-28T03:04:28;101692.56;;;15.30;77.09
43161;BME280;40968;52.342;5.528;2022-10-28T03:06:56;101634.91;;;14.97;77.17
43161;BME280;40968;52.342;5.528;2022-10-28T03:09:22;101684.72;;;15.27;77.37
43161;BME280;40968;52.342;5.528;2022-10-28T03:11:49;101627.78;;;14.96;77.19
43161;BME280;40968;52.342;5.528;2022-10-28T03:14:16;101685.44;;;15.29;77.24
43161;BME280;40968;52.342;5.528;2022-10-28T03:16:42;101635.66;;;14.99;77.12
43161;BME280;40968;52.342;5.528;2022-10-28T03:19:09;101693.53;;;15.29;77.08
43161;BME280;40968;52.342;5.528;2022-10-28T03:21:35;101701.56;;;15.30;77.22
43161;BME280;40968;52.342;5.528;2022-10-28T03:24:03;101685.69;;;15.25;77.05
43161;BME280;40968;52.342;5.528;2022-10-28T03:26:30;101598.63;;;14.78;76.86
43161;BME280;40968;52.342;5.528;2022-10-28T03:28:56;101582.91;;;14.72;77.00
43161;BME280;40968;52.342;5.528;2022-10-28T03:31:23;101482.88;;;14.07;76.98
43161;BME280;40968;52.342;5.528;2022-10-28T03:33:50;101686.94;;;15.33;76.95
43161;BME280;40968;52.342;5.528;2022-10-28T03:36:16;101679.81;;;15.32;76.80
43161;BME280;40968;52.342;5.528;2022-10-28T03:38:43;101589.78;;;14.76;77.04
43161;BME280;40968;52.342;5.528;2022-10-28T03:41:11;101687.16;;;15.30;76.86
43161;BME280;40968;52.342;5.528;2022-10-28T03:43:37;101603.75;;;14.81;76.98
43161;BME280;40968;52.342;5.528;2022-10-28T03:46:04;101688.53;;;15.24;76.99
43161;BME280;40968;52.342;5.528;2022-10-28T03:48:30;101656.03;;;15.03;77.07
43161;BME280;40968;52.342;5.528;2022-10-28T03:50:57;101619.09;;;14.81;77.06
43161;BME280;40968;52.342;5.528;2022-10-28T03:53:24;101628.28;;;14.89;77.17
43161;BME280;40968;52.342;5.528;2022-10-28T03:55:51;101696.00;;;15.20;76.76
43161;BME280;40968;52.342;5.528;2022-10-28T03:58:20;101677.25;;;15.19;77.11
43161;BME280;40968;52.342;5.528;2022-10-28T04:00:47;101674.31;;;15.11;77.20
43161;BME280;40968;52.342;5.528;2022-10-28T04:03:14;101602.78;;;14.71;77.06
43161;BME280;40968;52.342;5.528;2022-10-28T04:05:40;101668.53;;;15.15;77.01
43161;BME280;40968;52.342;5.528;2022-10-28T04:08:07;101638.59;;;14.96;77.13
43161;BME280;40968;52.342;5.528;2022-10-28T04:10:34;101538.75;;;14.39;77.23
43161;BME280;40968;52.342;5.528;2022-10-28T04:13:01;101628.91;;;14.93;77.40
43161;BME280;40968;52.342;5.528;2022-10-28T04:15:29;101615.03;;;14.86;77.11
43161;BME280;40968;52.342;5.528;2022-10-28T04:17:55;101641.53;;;15.04;77.26
43161;BME280;40968;52.342;5.528;2022-10-28T04:20:22;101604.03;;;14.78;77.14
43161;BME280;40968;52.342;5.528;2022-10-28T04:22:49;101653.81;;;15.08;77.24
43161;BME280;40968;52.342;5.528;2022-10-28T04:25:16;101568.94;;;14.55;76.90
43161;BME280;40968;52.342;5.528;2022-10-28T04:27:43;101583.88;;;14.59;76.95
43161;BME280;40968;52.342;5.528;2022-10-28T04:30:10;101619.47;;;14.76;76.90
43161;BME280;40968;52.342;5.528;2022-10-28T04:32:41;101677.09;;;15.09;77.11
43161;BME280;40968;52.342;5.528;2022-10-28T04:35:08;101648.41;;;14.97;77.09
43161;BME280;40968;52.342;5.528;2022-10-28T04:37:35;101671.47;;;15.12;76.79
43161;BME280;40968;52.342;5.528;2022-10-28T04:40:02;101666.09;;;15.12;76.90
43161;BME280;40968;52.342;5.528;2022-10-28T04:42:28;101590.78;;;14.64;76.72
43161;BME280;40968;52.342;5.528;2022-10-28T04:44:55;101620.81;;;14.93;76.59
43161;BME280;40968;52.342;5.528;2022-10-28T04:47:22;101676.63;;;15.15;76.51
43161;BME280;40968;52.342;5.528;2022-10-28T04:49:50;101660.44;;;15.15;76.73
43161;BME280;40968;52.342;5.528;2022-10-28T04:52:16;101656.75;;;15.16;76.95
43161;BME280;40968;52.342;5.528;2022-10-28T04:54:43;101556.28;;;14.56;76.45
43161;BME280;40968;52.342;5.528;2022-10-28T04:57:09;101658.69;;;15.14;76.28
43161;BME280;40968;52.342;5.528;2022-10-28T04:59:36;101656.00;;;15.14;76.69
43161;BME280;40968;52.342;5.528;2022-10-28T05:02:02;101494.09;;;14.12;76.41
43161;BME280;40968;52.342;5.528;2022-10-28T05:04:29;101504.91;;;14.12;76.47
43161;BME280;40968;52.342;5.528;2022-10-28T05:06:57;101595.94;;;14.78;76.56
43161;BME280;40968;52.342;5.528;2022-10-28T05:09:23;101621.69;;;14.94;76.41
43161;BME280;40968;52.342;5.528;2022-10-28T05:11:50;101619.56;;;14.97;76.30
43161;BME280;40968;52.342;5.528;2022-10-28T05:14:17;101572.00;;;14.62;76.48
43161;BME280;40968;52.342;5.528;2022-10-28T05:16:43;101652.44;;;15.14;76.38
43161;BME280;40968;52.342;5.528;2022-10-28T05:19:10;101643.50;;;15.13;76.61
43161;BME280;40968;52.342;5.528;2022-10-28T05:21:36;101612.09;;;14.89;76.21
43161;BME280;40968;52.342;5.528;2022-10-28T05:24:05;101569.56;;;14.70;76.37
43161;BME280;40968;52.342;5.528;2022-10-28T05:26:32;101601.56;;;14.86;76.45
43161;BME280;40968;52.342;5.528;2022-10-28T05:28:58;101568.94;;;14.67;76.32
43161;BME280;40968;52.342;5.528;2022-10-28T05:31:25;101585.25;;;14.77;76.53
43161;BME280;40968;52.342;5.528;2022-10-28T05:33:51;101632.72;;;15.02;76.45
43161;BME280;40968;52.342;5.528;2022-10-28T05:36:18;101489.97;;;14.19;76.52
43161;BME280;40968;52.342;5.528;2022-10-28T05:38:44;101634.44;;;15.03;76.38
43161;BME280;40968;52.342;5.528;2022-10-28T05:41:12;101643.50;;;15.02;76.42
43161;BME280;40968;52.342;5.528;2022-10-28T05:43:39;101641.78;;;15.01;76.67
43161;BME280;40968;52.342;5.528;2022-10-28T05:46:05;101602.78;;;14.82;76.68
43161;BME280;40968;52.342;5.528;2022-10-28T05:48:32;101628.41;;;14.99;76.57
43161;BME280;40968;52.342;5.528;2022-10-28T05:50:59;101644.75;;;14.98;76.47
43161;BME280;40968;52.342;5.528;2022-10-28T05:53:25;101522.56;;;14.16;76.65
43161;BME280;40968;52.342;5.528;2022-10-28T05:55:52;101600.84;;;14.73;76.54
43161;BME280;40968;52.342;5.528;2022-10-28T05:58:20;101588.06;;;14.64;76.58
43161;BME280;40968;52.342;5.528;2022-10-28T06:00:46;101611.72;;;14.83;76.65
43161;BME280;40968;52.342;5.528;2022-10-28T06:03:13;101513.47;;;14.17;76.56
43161;BME280;40968;52.342;5.528;2022-10-28T06:05:41;101532.38;;;14.29;76.45
43161;BME280;40968;52.342;5.528;2022-10-28T06:08:09;101504.19;;;14.10;76.59
43161;BME280;40968;52.342;5.528;2022-10-28T06:10:36;101541.22;;;14.31;76.61
43161;BME280;40968;52.342;5.528;2022-10-28T06:13:03;101639.06;;;14.89;76.62
43161;BME280;40968;52.342;5.528;2022-10-28T06:15:31;101651.84;;;14.87;76.56
43161;BME280;40968;52.342;5.528;2022-10-28T06:17:57;101636.00;;;14.83;76.75
43161;BME280;40968;52.342;5.528;2022-10-28T06:20:24;101416.38;;;13.49;76.61
43161;BME280;40968;52.342;5.528;2022-10-28T06:22:51;101606.78;;;14.54;76.74
43161;BME280;40968;52.342;5.528;2022-10-28T06:25:20;101649.63;;;14.81;76.53
43161;BME280;40968;52.342;5.528;2022-10-28T06:27:51;101652.34;;;14.81;76.54
43161;BME280;40968;52.342;5.528;2022-10-28T06:30:18;101486.97;;;13.77;76.58
43161;BME280;40968;52.342;5.528;2022-10-28T06:32:46;101608.38;;;14.45;76.91
43161;BME280;40968;52.342;5.528;2022-10-28T06:35:12;101634.78;;;14.64;76.66
43161;BME280;40968;52.342;5.528;2022-10-28T06:37:39;101435.72;;;13.43;76.79
43161;BME280;40968;52.342;5.528;2022-10-28T06:40:07;101460.47;;;13.59;76.58
43161;BME280;40968;52.342;5.528;2022-10-28T06:42:34;101529.88;;;13.91;76.62
43161;BME280;40968;52.342;5.528;2022-10-28T06:45:00;101635.72;;;14.63;76.65
43161;BME280;40968;52.342;5.528;2022-10-28T06:47:27;101658.13;;;14.77;76.72
43161;BME280;40968;52.342;5.528;2022-10-28T06:49:55;101629.00;;;14.57;76.74
43161;BME280;40968;52.342;5.528;2022-10-28T06:52:21;101453.97;;;13.51;76.70
43161;BME280;40968;52.342;5.528;2022-10-28T06:54:48;101584.44;;;14.18;76.56
43161;BME280;40968;52.342;5.528;2022-10-28T06:57:14;101580.28;;;14.25;76.67
43161;BME280;40968;52.342;5.528;2022-10-28T06:59:41;101575.97;;;14.22;76.69
43161;BME280;40968;52.342;5.528;2022-10-28T07:02:09;101667.53;;;14.71;76.81
43161;BME280;40968;52.342;5.528;2022-10-28T07:04:36;101520.41;;;13.86;76.62
43161;BME280;40968;52.342;5.528;2022-10-28T07:07:04;101631.19;;;14.52;76.71
43161;BME280;40968;52.342;5.528;2022-10-28T07:09:30;101675.66;;;14.82;76.55
43161;BME280;40968;52.342;5.528;2022-10-28T07:11:57;101693.56;;;14.83;76.58
43161;BME280;40968;52.342;5.528;2022-10-28T07:14:24;101638.22;;;14.66;76.51
43161;BME280;40968;52.342;5.528;2022-10-28T07:16:51;101670.00;;;14.85;76.50
43161;BME280;40968;52.342;5.528;2022-10-28T07:19:18;101665.34;;;14.87;76.63
43161;BME280;40968;52.342;5.528;2022-10-28T07:21:46;101617.09;;;14.60;76.58
43161;BME280;40968;52.342;5.528;2022-10-28T07:24:14;101562.03;;;14.29;76.50
43161;BME280;40968;52.342;5.528;2022-10-28T07:26:40;101563.00;;;14.27;76.14
43161;BME280;40968;52.342;5.528;2022-10-28T07:29:07;101666.69;;;14.93;76.22
43161;BME280;40968;52.342;5.528;2022-10-28T07:31:33;101596.13;;;14.52;76.39
43161;BME280;40968;52.342;5.528;2022-10-28T07:34:00;101576.03;;;14.45;76.26
43161;BME280;40968;52.342;5.528;2022-10-28T07:36:27;101527.09;;;14.04;76.31
43161;BME280;40968;52.342;5.528;2022-10-28T07:38:53;101461.72;;;13.67;76.05
43161;BME280;40968;52.342;5.528;2022-10-28T07:41:23;101680.19;;;15.04;76.06
43161;BME280;40968;52.342;5.528;2022-10-28T07:43:53;101510.28;;;14.12;75.83
43161;BME280;40968;52.342;5.528;2022-10-28T07:46:20;101598.38;;;14.70;76.08
43161;BME280;40968;52.342;5.528;2022-10-28T07:48:47;101684.59;;;15.17;75.91
43161;BME280;40968;52.342;5.528;2022-10-28T07:51:14;101640.53;;;15.05;75.89
43161;BME280;40968;52.342;5.528;2022-10-28T07:53:41;101640.31;;;15.08;75.69
43161;BME280;40968;52.342;5.528;2022-10-28T07:56:09;101620.44;;;14.98;75.76
43161;BME280;40968;52.342;5.528;2022-10-28T07:58:39;101677.47;;;15.38;75.44
43161;BME280;40968;52.342;5.528;2022-10-28T08:01:07;101617.97;;;15.06;75.13
43161;BME280;40968;52.342;5.528;2022-10-28T08:03:34;101696.94;;;15.53;74.88
43161;BME280;40968;52.342;5.528;2022-10-28T08:06:03;101696.47;;;15.59;74.99
43161;BME280;40968;52.342;5.528;2022-10-28T08:08:30;101612.44;;;15.19;74.41
43161;BME280;40968;52.342;5.528;2022-10-28T08:10:56;101473.41;;;14.35;74.48
43161;BME280;40968;52.342;5.528;2022-10-28T08:13:23;101533.81;;;14.89;74.14
43161;BME280;40968;52.342;5.528;2022-10-28T08:15:54;101605.88;;;15.44;74.19
43161;BME280;40968;52.342;5.528;2022-10-28T08:18:20;101691.19;;;16.02;73.63
43161;BME280;40968;52.342;5.528;2022-10-28T08:20:47;101614.38;;;15.72;73.77
43161;BME280;40968;52.342;5.528;2022-10-28T08:23:14;101691.63;;;16.18;73.68
43161;BME280;40968;52.342;5.528;2022-10-28T08:25:46;101433.81;;;14.70;73.04
43161;BME280;40968;52.342;5.528;2022-10-28T08:28:14;101687.72;;;16.32;72.55
43161;BME280;40968;52.342;5.528;2022-10-28T08:30:40;101606.13;;;15.85;72.56
43161;BME280;40968;52.342;5.528;2022-10-28T08:33:08;101692.09;;;16.45;72.34
43161;BME280;40968;52.342;5.528;2022-10-28T08:35:35;101700.56;;;16.51;72.17
43161;BME280;40968;52.342;5.528;2022-10-28T08:38:02;101694.75;;;16.56;71.82
43161;BME280;40968;52.342;5.528;2022-10-28T08:40:34;101631.63;;;16.24;71.67
43161;BME280;40968;52.342;5.528;2022-10-28T08:43:07;101689.38;;;16.66;71.44
43161;BME280;40968;52.342;5.528;2022-10-28T08:45:44;101697.13;;;16.70;71.53
43161;BME280;40968;52.342;5.528;2022-10-28T08:48:20;101701.13;;;16.76;71.50
43161;BME280;40968;52.342;5.528;2022-10-28T08:50:53;101689.03;;;16.80;71.51
43161;BME280;40968;52.342;5.528;2022-10-28T08:53:25;101525.66;;;15.77;71.11
43161;BME280;40968;52.342;5.528;2022-10-28T08:55:58;101686.63;;;16.77;70.82
43161;BME280;40968;52.342;5.528;2022-10-28T08:58:33;101623.63;;;16.44;70.90
43161;BME280;40968;52.342;5.528;2022-10-28T09:01:04;101686.66;;;16.87;71.07
43161;BME280;40968;52.342;5.528;2022-10-28T09:03:38;101650.50;;;16.67;71.24
43161;BME280;40968;52.342;5.528;2022-10-28T09:06:08;101557.41;;;16.17;70.94
43161;BME280;40968;52.342;5.528;2022-10-28T09:08:38;101684.44;;;16.92;71.25
43161;BME280;40968;52.342;5.528;2022-10-28T09:14:02;101517.72;;;15.97;71.22
43161;BME280;40968;52.342;5.528;2022-10-28T09:16:39;101688.88;;;17.03;71.09
43161;BME280;40968;52.342;5.528;2022-10-28T09:19:21;101643.03;;;16.80;70.61
43161;BME280;40968;52.342;5.528;2022-10-28T09:21:59;101686.38;;;17.11;70.71
43161;BME280;40968;52.342;5.528;2022-10-28T09:24:42;101694.97;;;17.16;70.54
43161;BME280;40968;52.342;5.528;2022-10-28T09:27:17;101610.19;;;16.64;70.55
43161;BME280;40968;52.342;5.528;2022-10-28T09:29:54;101552.84;;;16.39;70.45
43161;BME280;40968;52.342;5.528;2022-10-28T09:32:28;101685.72;;;17.29;70.58
43161;BME280;40968;52.342;5.528;2022-10-28T09:35:05;101679.91;;;17.33;70.67
43161;BME280;40968;52.342;5.528;2022-10-28T09:37:38;101625.22;;;17.09;70.68
43161;BME280;40968;52.342;5.528;2022-10-28T09:40:13;101593.81;;;16.96;70.42
43161;BME280;40968;52.342;5.528;2022-10-28T09:42:57;101544.38;;;16.63;70.18
43161;BME280;40968;52.342;5.528;2022-10-28T09:45:28;101678.38;;;17.50;70.16
43161;BME280;40968;52.342;5.528;2022-10-28T09:47:58;101617.56;;;17.23;70.20
43161;BME280;40968;52.342;5.528;2022-10-28T09:50:30;101670.25;;;17.60;70.21
43161;BME280;40968;52.342;5.528;2022-10-28T09:53:02;101679.81;;;17.64;69.77
43161;BME280;40968;52.342;5.528;2022-10-28T09:55:34;101659.56;;;17.59;69.54
43161;BME280;40968;52.342;5.528;2022-10-28T09:58:01;101687.53;;;17.69;69.78
43161;BME280;40968;52.342;5.528;2022-10-28T10:00:28;101637.56;;;17.42;70.00
43161;BME280;40968;52.342;5.528;2022-10-28T10:02:56;101694.09;;;17.76;69.56
43161;BME280;40968;52.342;5.528;2022-10-28T10:05:24;101562.50;;;17.13;69.43
43161;BME280;40968;52.342;5.528;2022-10-28T10:07:54;101577.66;;;17.26;69.28
43161;BME280;40968;52.342;5.528;2022-10-28T10:10:22;101692.16;;;17.98;69.03
43161;BME280;40968;52.342;5.528;2022-10-28T10:12:51;101685.03;;;18.06;68.93
43161;BME280;40968;52.342;5.528;2022-10-28T10:15:25;101637.34;;;17.84;68.57
43161;BME280;40968;52.342;5.528;2022-10-28T10:17:54;101687.72;;;18.26;68.37
43161;BME280;40968;52.342;5.528;2022-10-28T10:20:22;101684.16;;;18.35;68.23
43161;BME280;40968;52.342;5.528;2022-10-28T10:22:49;101688.56;;;18.46;68.05
43161;BME280;40968;52.342;5.528;2022-10-28T10:25:26;101694.69;;;18.58;67.60
43161;BME280;40968;52.342;5.528;2022-10-28T10:27:59;101646.16;;;18.45;66.98
43161;BME280;40968;52.342;5.528;2022-10-28T10:30:30;101649.66;;;18.65;66.92
43161;BME280;40968;52.342;5.528;2022-10-28T10:32:57;101677.44;;;18.97;66.18
43161;BME280;40968;52.342;5.528;2022-10-28T10:35:26;101679.72;;;19.01;65.84
43161;BME280;40968;52.342;5.528;2022-10-28T10:37:55;101678.25;;;19.07;65.75
43161;BME280;40968;52.342;5.528;2022-10-28T10:40:25;101669.53;;;19.13;65.95
43161;BME280;40968;52.342;5.528;2022-10-28T10:42:55;101673.66;;;19.17;65.04
43161;BME280;40968;52.342;5.528;2022-10-28T10:45:39;101649.75;;;19.21;65.04
43161;BME280;40968;52.342;5.528;2022-10-28T10:48:11;101606.78;;;19.07;64.52
43161;BME280;40968;52.342;5.528;2022-10-28T10:50:38;101396.28;;;17.91;64.76
43161;BME280;40968;52.342;5.528;2022-10-28T10:53:06;101588.25;;;19.20;64.42
43161;BME280;40968;52.342;5.528;2022-10-28T10:55:48;101641.19;;;19.62;64.05
43161;BME280;40968;52.342;5.528;2022-10-28T10:58:18;101623.94;;;19.53;63.93
43161;BME280;40968;52.342;5.528;2022-10-28T11:00:50;101568.88;;;19.33;64.02
43161;BME280;40968;52.342;5.528;2022-10-28T11:03:20;101645.53;;;19.82;64.32
43161;BME280;40968;52.342;5.528;2022-10-28T11:05:49;101638.28;;;19.91;63.64
43161;BME280;40968;52.342;5.528;2022-10-28T11:08:27;101640.22;;;19.99;63.45
43161;BME280;40968;52.342;5.528;2022-10-28T11:11:11;101649.94;;;20.01;63.19
43161;BME280;40968;52.342;5.528;2022-10-28T11:13:38;101643.81;;;19.81;63.34
43161;BME280;40968;52.342;5.528;2022-10-28T11:16:14;101642.47;;;19.85;63.64
43161;BME280;40968;52.342;5.528;2022-10-28T11:18:43;101449.00;;;18.72;63.27
43161;BME280;40968;52.342;5.528;2022-10-28T11:21:32;101601.19;;;19.72;63.78
43161;BME280;40968;52.342;5.528;2022-10-28T11:24:18;101517.25;;;19.33;63.59
43161;BME280;40968;52.342;5.528;2022-10-28T11:26:54;101610.56;;;19.87;63.16
43161;BME280;40968;52.342;5.528;2022-10-28T11:29:24;101643.41;;;20.12;63.29
43161;BME280;40968;52.342;5.528;2022-10-28T11:32:08;101527.09;;;19.34;62.86
43161;BME280;40968;52.342;5.528;2022-10-28T11:34:49;101540.06;;;19.40;62.97
43161;BME280;40968;52.342;5.528;2022-10-28T11:37:27;101598.16;;;19.75;63.03
43161;BME280;40968;52.342;5.528;2022-10-28T11:40:07;101555.13;;;19.52;63.23
43161;BME280;40968;52.342;5.528;2022-10-28T11:42:46;101660.81;;;20.19;63.08
43161;BME280;40968;52.342;5.528;2022-10-28T11:45:20;101603.91;;;19.72;62.96
43161;BME280;40968;52.342;5.528;2022-10-28T11:48:04;101661.56;;;20.30;63.43
43161;BME280;40968;52.342;5.528;2022-10-28T11:50:52;101665.34;;;20.37;62.93
43161;BME280;40968;52.342;5.528;2022-10-28T11:53:40;101472.66;;;19.26;62.56
43161;BME280;40968;52.342;5.528;2022-10-28T11:56:17;101636.69;;;20.25;62.76
43161;BME280;40968;52.342;5.528;2022-10-28T11:58:55;101653.78;;;20.35;62.61
43161;BME280;40968;52.342;5.528;2022-10-28T12:01:37;101623.91;;;20.25;62.44
43161;BME280;40968;52.342;5.528;2022-10-28T12:04:24;101676.53;;;20.52;61.91
43161;BME280;40968;52.342;5.528;2022-10-28T12:07:08;101664.09;;;20.49;62.59
43161;BME280;40968;52.342;5.528;2022-10-28T12:09:47;101669.19;;;20.52;62.02
43161;BME280;40968;52.342;5.528;2022-10-28T12:12:23;101645.00;;;20.41;62.48
43161;BME280;40968;52.342;5.528;2022-10-28T12:15:01;101621.38;;;20.24;62.23
43161;BME280;40968;52.342;5.528;2022-10-28T12:17:39;101628.94;;;20.38;62.15
43161;BME280;40968;52.342;5.528;2022-10-28T12:20:13;101634.94;;;20.42;62.05
43161;BME280;40968;52.342;5.528;2022-10-28T12:22:45;101674.41;;;20.64;62.21
43161;BME280;40968;52.342;5.528;2022-10-28T12:25:16;101667.63;;;20.68;62.02
43161;BME280;40968;52.342;5.528;2022-10-28T12:27:46;101595.03;;;20.24;61.61
43161;BME280;40968;52.342;5.528;2022-10-28T12:30:20;101656.69;;;20.60;61.58
43161;BME280;40968;52.342;5.528;2022-10-28T12:32:52;101620.69;;;20.48;61.73
43161;BME280;40968;52.342;5.528;2022-10-28T12:35:23;101608.94;;;20.47;61.81
43161;BME280;40968;52.342;5.528;2022-10-28T12:37:53;101666.66;;;20.77;60.83
43161;BME280;40968;52.342;5.528;2022-10-28T12:40:23;101638.78;;;20.57;61.06
43161;BME280;40968;52.342;5.528;2022-10-28T12:42:54;101623.25;;;20.49;60.57
43161;BME280;40968;52.342;5.528;2022-10-28T12:45:26;101620.94;;;20.36;60.70
43161;BME280;40968;52.342;5.528;2022-10-28T12:47:57;101673.84;;;20.78;60.12
43161;BME280;40968;52.342;5.528;2022-10-28T12:50:27;101395.75;;;19.07;59.60
43161;BME280;40968;52.342;5.528;2022-10-28T12:53:16;101614.81;;;20.34;59.90
43161;BME280;40968;52.342;5.528;2022-10-28T12:55:48;101695.41;;;20.72;59.96
43161;BME280;40968;52.342;5.528;2022-10-28T12:58:20;101690.13;;;20.70;60.23
43161;BME280;40968;52.342;5.528;2022-10-28T13:00:53;101578.34;;;20.01;60.50
43161;BME280;40968;52.342;5.528;2022-10-28T13:03:21;101690.56;;;20.65;60.52
43161;BME280;40968;52.342;5.528;2022-10-28T13:05:55;101680.03;;;20.44;60.17
43161;BME280;40968;52.342;5.528;2022-10-28T13:14:00;101708.59;;;20.58;60.13
43161;BME280;40968;52.342;5.528;2022-10-28T13:16:47;101678.28;;;20.35;60.10
43161;BME280;40968;52.342;5.528;2022-10-28T13:19:34;101722.66;;;20.53;59.77